.
WxDataArchive / Data Records for 2016-06-11
2016-06-10 June 2016 2016-06-12

Data Records for Saturday, 11 June 2016

Time	Temp	Chill	HIndex	Humid	Dewpt	 Wind 	HiWind	WindDir	Rain 	Barom
-----	----	-----	------	-----	-----	------	------	-------	-----	-----
00:00	77.9	77.9	79.8	68	66.5	0	0	---	0.00	29.896 
00:05	78.1	78.1	80.0	67	66.2	0	1	90	0.00	29.896 
00:10	78.1	78.1	80.0	66	65.8	0	1	90	0.00	29.896 
00:15	78.1	78.1	80.0	66	65.8	0	2	90	0.00	29.906 
00:20	78.1	78.1	80.0	65	65.4	0	2	90	0.00	29.906 
00:25	78.1	78.1	80.0	65	65.4	0	1	90	0.00	29.906 
00:30	77.9	77.9	79.7	65	65.2	0	0	---	0.00	29.908 
00:35	77.9	77.9	79.7	64	64.7	0	2	90	0.00	29.908 
00:40	77.9	77.9	79.7	64	64.7	0	1	90	0.00	29.908 
00:45	77.9	77.9	79.7	63	64.3	0	2	90	0.00	29.911 
00:50	78.1	78.1	79.9	63	64.5	0	2	90	0.00	29.911 
00:55	78.1	78.1	79.9	63	64.5	0	1	90	0.00	29.911 
01:00	78.1	78.1	79.9	62	64.0	0	2	90	0.00	29.907 
01:05	78.3	78.3	80.1	62	64.2	0	1	90	0.00	29.907 
01:10	78.3	78.3	80.1	62	64.2	0	1	90	0.00	29.907 
01:15	78.3	78.3	80.1	62	64.2	0	2	90	0.00	29.895 
01:20	78.3	78.3	80.1	62	64.2	0	1	90	0.00	29.895 
01:25	78.3	78.3	80.1	62	64.2	0	1	90	0.00	29.895 
01:30	78.1	78.1	79.9	62	64.0	0	3	90	0.00	29.900 
01:35	78.1	78.1	79.9	62	64.0	0	1	90	0.00	29.900 
01:40	78.1	78.1	79.9	62	64.0	0	3	90	0.00	29.900 
01:45	77.9	77.9	79.6	62	63.8	0	1	90	0.00	29.901 
01:50	77.9	77.9	79.6	62	63.8	0	1	90	0.00	29.901 
01:55	77.7	77.7	79.4	62	63.6	0	1	90	0.00	29.901 
02:00	77.7	77.7	79.4	62	63.6	0	1	90	0.00	29.909 
02:05	77.6	77.6	79.4	62	63.5	0	1	90	0.00	29.909 
02:10	77.6	77.6	79.4	62	63.5	0	2	90	0.00	29.909 
02:15	77.4	77.4	79.2	62	63.3	0	1	90	0.00	29.911 
02:20	77.4	77.4	79.2	62	63.3	0	1	90	0.00	29.911 
02:25	77.4	77.4	79.2	62	63.3	0	1	90	0.00	29.911 
02:30	77.2	77.2	79.0	62	63.2	0	2	90	0.00	29.897 
02:35	77.2	77.2	79.0	62	63.2	0	2	90	0.00	29.897 
02:40	77.0	77.0	78.8	62	63.0	0	1	90	0.00	29.897 
02:45	76.8	76.8	78.6	63	63.2	0	1	90	0.00	29.899 
02:50	76.8	76.8	78.6	63	63.2	0	1	90	0.00	29.899 
02:55	76.8	76.8	78.6	63	63.2	0	1	90	0.00	29.899 
03:00	76.7	76.7	78.5	63	63.1	0	1	90	0.00	29.901 
03:05	76.7	76.7	78.5	63	63.1	0	1	90	0.00	29.901 
03:10	76.5	76.5	78.3	63	62.9	0	1	90	0.00	29.901 
03:15	76.5	76.5	78.3	63	62.9	0	1	90	0.00	29.890 
03:20	76.5	76.5	78.3	64	63.4	0	3	90	0.00	29.890 
03:25	76.5	76.5	78.3	63	62.9	0	1	90	0.00	29.890 
03:30	76.5	76.5	78.3	63	62.9	0	1	90	0.00	29.886 
03:35	76.3	76.3	78.2	63	62.8	0	1	90	0.00	29.886 
03:40	76.3	76.3	78.2	63	62.8	0	2	90	0.00	29.886 
03:45	76.3	76.3	78.2	63	62.8	0	4	90	0.00	29.883 
03:50	76.3	76.3	78.2	63	62.8	0	4	68	0.00	29.883 
03:55	76.1	76.1	78.0	63	62.6	0	2	68	0.00	29.883 
04:00	76.1	76.1	78.0	64	63.0	0	0	---	0.00	29.880 
04:05	76.0	76.0	77.9	64	62.9	0	1	68	0.00	29.880 
04:10	75.8	75.8	77.7	64	62.7	0	0	---	0.00	29.880 
04:15	75.8	75.8	77.7	64	62.7	0	1	68	0.00	29.876 
04:20	75.8	75.8	77.7	64	62.7	0	1	68	0.00	29.876 
04:25	75.6	75.6	77.6	64	62.5	0	3	45	0.00	29.876 
04:30	75.6	75.6	77.6	64	62.5	0	1	45	0.00	29.876 
04:35	75.4	75.4	77.4	65	62.8	0	1	45	0.00	29.876 
04:40	75.4	75.4	77.4	65	62.8	0	2	45	0.00	29.876 
04:45	75.3	75.3	77.3	65	62.7	0	1	45	0.00	29.875 
04:50	75.1	75.1	77.1	65	62.5	0	1	45	0.00	29.875 
04:55	75.1	75.1	77.1	66	62.9	0	1	45	0.00	29.875 
05:00	74.9	74.9	74.9	66	62.8	0	1	45	0.00	29.875 
05:05	74.9	74.9	74.9	66	62.8	0	1	45	0.00	29.875 
05:10	74.7	74.7	74.7	66	62.6	0	4	45	0.00	29.875 
05:15	74.7	74.7	74.7	66	62.6	0	2	315	0.00	29.876 
05:20	74.9	74.9	74.9	66	62.8	1	4	292	0.00	29.876 
05:25	74.9	74.9	74.9	66	62.8	0	2	292	0.00	29.876 
05:30	74.7	74.7	74.7	66	62.6	0	5	270	0.00	29.875 
05:35	74.7	74.7	74.7	66	62.6	0	2	270	0.00	29.875 
05:40	74.7	74.7	74.7	66	62.6	0	4	270	0.00	29.875 
05:45	74.6	74.6	74.6	67	62.9	0	3	270	0.00	29.878 
05:50	74.6	74.6	74.6	67	62.9	0	1	270	0.00	29.878 
05:55	74.6	74.6	74.6	67	62.9	0	2	270	0.00	29.878 
06:00	74.4	74.4	74.4	67	62.7	0	4	270	0.00	29.888 
06:05	74.4	74.4	74.4	68	63.1	0	2	270	0.00	29.888 
06:10	74.4	74.4	74.4	68	63.1	0	2	270	0.00	29.888 
06:15	74.4	74.4	74.4	68	63.1	0	1	270	0.00	29.885 
06:20	74.2	74.2	74.2	68	62.9	0	2	270	0.00	29.885 
06:25	74.2	74.2	74.2	68	62.9	0	1	270	0.00	29.885 
06:30	74.2	74.2	74.2	69	63.4	0	2	270	0.00	29.888 
06:35	74.4	74.4	74.4	69	63.5	0	3	270	0.00	29.888 
06:40	74.4	74.4	74.4	69	63.5	0	2	270	0.00	29.888 
06:45	74.6	74.6	74.6	68	63.3	0	2	270	0.00	29.888 
06:50	74.6	74.6	74.6	68	63.3	0	1	248	0.00	29.888 
06:55	74.7	74.7	74.7	68	63.4	0	2	248	0.00	29.888 
07:00	74.9	74.9	74.9	68	63.6	1	3	270	0.00	29.872 
07:05	74.9	74.9	74.9	68	63.6	1	3	270	0.00	29.872 
07:10	75.1	75.1	76.9	68	63.8	1	6	270	0.00	29.872 
07:15	75.1	75.1	76.9	68	63.8	0	3	270	0.00	29.877 
07:20	75.1	75.1	76.9	68	63.8	0	4	270	0.00	29.877 
07:25	75.1	75.1	76.9	68	63.8	1	3	292	0.00	29.877 
07:30	75.3	75.3	77.0	69	64.4	1	3	292	0.00	29.880 
07:35	75.3	75.3	77.0	69	64.4	0	2	292	0.00	29.880 
07:40	75.3	75.3	77.0	69	64.4	0	4	270	0.00	29.880 
07:45	75.4	75.4	77.1	69	64.5	0	1	270	0.00	29.871 
07:50	75.4	75.4	77.1	69	64.5	0	2	270	0.00	29.871 
07:55	75.6	75.6	77.3	69	64.7	2	5	292	0.00	29.871 
08:00	75.8	75.8	77.5	69	64.9	3	6	315	0.00	29.908 
08:05	75.8	75.8	77.6	68	64.5	2	5	292	0.00	29.908 
08:10	76.0	76.0	77.7	69	65.1	2	4	292	0.00	29.908 
08:15	76.3	76.3	78.0	68	64.9	2	3	292	0.00	29.912 
08:20	76.5	76.5	78.3	68	65.1	2	4	292	0.00	29.912 
08:25	76.8	76.8	78.6	68	65.4	2	5	292	0.00	29.912 
08:30	77.0	77.0	78.8	67	65.2	2	5	292	0.00	29.907 
08:35	77.2	77.2	79.0	67	65.4	2	6	292	0.00	29.907 
08:40	77.2	77.2	79.0	67	65.4	2	5	292	0.00	29.907 
08:45	77.4	77.4	79.2	67	65.6	2	5	270	0.00	29.910 
08:50	77.7	77.7	79.6	67	65.8	2	5	270	0.00	29.910 
08:55	77.9	77.9	79.8	66	65.6	2	5	270	0.00	29.910 
09:00	78.1	78.1	80.0	65	65.4	2	5	270	0.00	29.910 
09:05	78.5	78.5	80.5	66	66.2	1	5	292	0.00	29.910 
09:10	78.6	78.6	80.6	65	65.8	2	5	270	0.00	29.910 
09:15	79.0	79.0	81.0	65	66.2	1	3	292	0.00	29.915 
09:20	79.2	79.2	81.2	64	65.9	1	4	292	0.00	29.915 
09:25	79.4	79.4	81.5	64	66.1	1	4	292	0.00	29.915 
09:30	79.6	79.6	81.5	62	65.4	3	10	270	0.00	29.916 
09:35	79.8	79.8	81.9	63	66.1	1	4	292	0.00	29.916 
09:40	80.1	80.1	82.2	62	65.9	2	5	292	0.00	29.916 
09:45	80.3	80.3	82.4	62	66.1	2	4	292	0.00	29.917 
09:50	80.5	80.5	82.5	61	65.8	2	5	292	0.00	29.917 
09:55	80.9	80.9	83.1	61	66.2	1	5	270	0.00	29.917 
10:00	81.2	81.2	83.5	61	66.4	2	7	270	0.00	29.916 
10:05	81.6	81.6	83.9	60	66.3	1	6	292	0.00	29.916 
10:10	82.0	82.0	84.1	58	65.7	2	5	292	0.00	29.916 
10:15	82.4	82.4	84.4	57	65.6	2	6	292	0.00	29.916 
10:20	82.4	82.4	84.4	57	65.6	2	6	270	0.00	29.916 
10:25	82.4	82.4	84.2	56	65.1	2	6	270	0.00	29.916 
10:30	82.2	82.2	84.0	56	64.9	3	7	292	0.00	29.915 
10:35	82.4	82.4	84.4	57	65.6	3	6	292	0.00	29.915 
10:40	82.6	82.6	84.7	57	65.8	2	5	292	0.00	29.915 
10:45	83.0	83.0	85.3	57	66.2	1	4	292	0.00	29.919 
10:50	83.2	83.2	85.8	58	66.9	1	4	292	0.00	29.919 
10:55	83.4	83.4	85.4	55	65.5	2	6	270	0.00	29.919 
11:00	83.4	83.4	85.8	57	66.5	1	4	270	0.00	29.919 
11:05	83.8	83.8	86.2	56	66.4	2	6	270	0.00	29.919 
11:10	84.0	84.0	86.3	55	66.1	3	7	292	0.00	29.919 
11:15	84.5	84.5	87.0	55	66.5	2	7	292	0.00	29.919 
11:20	84.9	84.9	87.6	55	66.9	2	5	292	0.00	29.919 
11:25	84.9	84.9	87.1	53	65.8	2	5	270	0.00	29.919 
11:30	84.9	84.9	87.3	54	66.4	3	7	292	0.00	29.920 
11:35	85.3	85.3	87.7	53	66.2	2	6	292	0.00	29.920 
11:40	85.5	85.5	88.3	54	66.9	1	4	292	0.00	29.920 
11:45	85.9	85.9	88.6	53	66.7	2	6	292	0.00	29.920 
11:50	86.3	86.3	88.9	52	66.6	3	6	270	0.00	29.920 
11:55	86.5	86.5	88.9	51	66.2	3	6	292	0.00	29.920 
12:00	86.5	86.5	88.9	51	66.2	1	5	292	0.00	29.921 
12:05	86.7	86.7	89.3	51	66.4	1	5	270	0.00	29.921 
12:10	87.0	87.0	89.4	50	66.1	3	7	270	0.00	29.921 
12:15	87.0	87.0	89.7	51	66.6	2	4	270	0.00	29.926 
12:20	87.2	87.2	89.7	50	66.3	2	7	315	0.00	29.926 
12:25	87.2	87.2	89.4	49	65.7	3	7	292	0.00	29.926 
12:30	87.6	87.6	90.0	49	66.0	2	6	315	0.00	29.919 
12:35	87.6	87.6	89.7	48	65.4	4	10	270	0.00	29.919 
12:40	87.4	87.4	89.4	48	65.3	4	10	292	0.00	29.919 
12:45	87.4	87.4	90.1	50	66.4	3	7	292	0.00	29.919 
12:50	87.8	87.8	91.1	51	67.4	2	6	292	0.00	29.919 
12:55	88.4	88.4	91.7	50	67.4	1	5	292	0.00	29.919 
13:00	88.6	88.6	91.3	48	66.4	2	6	292	0.00	29.917 
13:05	88.6	88.6	91.3	48	66.4	2	5	270	0.00	29.917 
13:10	88.6	88.6	92.1	50	67.5	1	5	292	0.00	29.917 
13:15	88.6	88.6	91.7	49	67.0	2	5	292	0.00	29.911 
13:20	88.6	88.6	92.1	50	67.5	2	6	292	0.00	29.911 
13:25	88.8	88.8	92.8	51	68.3	2	6	292	0.00	29.911 
13:30	89.0	89.0	92.0	48	66.7	3	10	292	0.00	29.908 
13:35	89.0	89.0	92.4	49	67.3	2	6	292	0.00	29.908 
13:40	89.5	89.5	92.8	48	67.2	2	5	315	0.00	29.908 
13:45	89.5	89.5	92.1	46	65.9	3	9	315	0.00	29.902 
13:50	89.5	89.5	93.2	49	67.8	2	5	292	0.00	29.902 
13:55	89.7	89.7	92.4	46	66.1	2	6	270	0.00	29.902 
14:00	89.9	89.9	92.7	46	66.3	2	4	270	0.00	29.898 
14:05	89.9	89.9	92.7	46	66.3	3	11	292	0.00	29.898 
14:10	89.9	89.9	92.7	46	66.3	3	7	292	0.00	29.898 
14:15	89.9	89.9	92.7	46	66.3	3	9	292	0.00	29.891 
14:20	90.1	90.1	92.7	45	65.9	3	7	270	0.00	29.891 
14:25	90.1	90.1	92.7	45	65.9	3	6	270	0.00	29.891 
14:30	89.9	89.9	93.1	47	66.9	3	8	270	0.00	29.888 
14:35	90.1	90.1	93.1	46	66.5	2	5	270	0.00	29.888 
14:40	89.9	89.9	92.3	45	65.7	2	4	292	0.00	29.888 
14:45	90.1	90.1	93.1	46	66.5	2	4	292	0.00	29.886 
14:50	90.5	90.5	92.5	43	64.9	3	9	270	0.00	29.886 
14:55	90.7	90.7	93.7	45	66.4	2	5	270	0.00	29.886 
15:00	91.0	91.0	93.8	44	66.0	2	4	292	0.00	29.884 
15:05	91.0	91.0	93.8	44	66.0	2	4	292	0.00	29.884 
15:10	91.0	91.0	94.2	45	66.7	2	7	292	0.00	29.884 
15:15	90.5	90.5	92.9	44	65.6	1	5	292	0.00	29.873 
15:20	90.7	90.7	92.9	43	65.1	2	7	270	0.00	29.873 
15:25	91.0	91.0	93.4	43	65.4	1	7	270	0.00	29.873 
15:30	91.0	91.0	93.0	42	64.7	2	8	270	0.00	29.871 
15:35	91.0	91.0	93.4	43	65.4	2	7	270	0.00	29.871 
15:40	91.4	91.4	94.0	43	65.7	2	5	292	0.00	29.871 
15:45	91.6	91.6	93.9	42	65.2	2	5	270	0.00	29.872 
15:50	91.8	91.8	94.3	42	65.4	2	8	270	0.00	29.872 
15:55	91.6	91.6	93.1	40	63.8	2	7	270	0.00	29.872 
16:00	91.8	91.8	93.4	40	64.0	2	5	270	0.00	29.871 
16:05	92.1	92.1	94.4	41	65.0	2	7	292	0.00	29.871 
16:10	91.8	91.8	93.1	39	63.3	2	6	270	0.00	29.871 
16:15	91.0	91.0	91.8	39	62.6	2	8	270	0.00	29.882 
16:20	89.9	89.9	91.2	42	63.7	3	6	292	0.00	29.882 
16:25	87.4	87.4	91.5	54	68.7	4	9	292	0.00	29.882 
16:30	84.1	84.1	87.7	60	68.7	1	6	270	0.00	29.891 
16:35	82.8	82.8	86.1	62	68.4	1	4	292	0.00	29.891 
16:40	82.4	82.4	85.4	62	68.0	1	4	292	0.00	29.891 
16:45	82.6	82.6	85.7	62	68.2	0	1	292	0.00	29.889 
16:50	83.0	83.0	86.1	61	68.1	0	1	292	0.00	29.889 
16:55	83.4	83.4	87.0	62	69.0	1	2	292	0.00	29.889 
17:00	83.4	83.4	86.5	60	68.0	1	2	292	0.00	29.880 
17:05	83.6	83.6	86.6	59	67.7	0	1	292	0.00	29.880 
17:10	84.0	84.0	87.5	60	68.6	0	1	292	0.00	29.880 
17:15	84.1	84.1	87.7	60	68.7	0	1	292	0.00	29.876 
17:20	84.5	84.5	87.8	58	68.1	0	2	292	0.00	29.876 
17:25	84.9	84.9	88.2	57	67.9	1	3	292	0.00	29.876 
17:30	85.3	85.3	88.8	57	68.3	1	3	292	0.00	29.879 
17:35	85.5	85.5	89.5	58	69.0	0	1	292	0.00	29.879 
17:40	85.9	85.9	90.6	59	69.9	0	1	292	0.00	29.879 
17:45	86.5	86.5	90.6	56	68.9	0	2	292	0.00	29.876 
17:50	87.2	87.2	91.9	56	69.6	1	3	292	0.00	29.876 
17:55	88.2	88.2	92.1	52	68.3	1	3	292	0.00	29.876 
18:00	89.0	89.0	92.8	50	67.9	2	4	292	0.00	29.870 
18:05	89.5	89.5	92.4	47	66.6	3	12	292	0.00	29.870 
18:10	89.9	89.9	91.9	44	65.0	3	6	292	0.00	29.870 
18:15	90.1	90.1	92.3	44	65.2	2	5	292	0.00	29.869 
18:20	89.9	89.9	91.6	43	64.4	3	7	270	0.00	29.869 
18:25	89.7	89.7	91.6	44	64.8	2	5	270	0.00	29.869 
18:30	89.7	89.7	91.6	44	64.8	2	5	270	0.00	29.866 
18:35	89.7	89.7	92.0	45	65.5	1	3	270	0.00	29.866 
18:40	89.9	89.9	92.3	45	65.7	1	3	270	0.00	29.866 
18:45	89.9	89.9	92.3	45	65.7	2	4	270	0.00	29.860 
18:50	89.9	89.9	92.3	45	65.7	2	4	270	0.00	29.860 
18:55	89.9	89.9	92.3	45	65.7	1	4	270	0.00	29.860 
19:00	89.9	89.9	91.6	43	64.4	2	4	292	0.00	29.859 
19:05	90.1	90.1	91.9	43	64.5	2	3	292	0.00	29.859 
19:10	90.1	90.1	91.2	41	63.2	1	4	292	0.00	29.859 
19:15	90.1	90.1	90.8	40	62.5	1	3	292	0.00	29.856 
19:20	90.1	90.1	91.2	41	63.2	1	3	292	0.00	29.856 
19:25	90.1	90.1	91.2	41	63.2	1	3	292	0.00	29.856 
19:30	90.1	90.1	90.8	40	62.5	1	4	292	0.00	29.857 
19:35	90.1	90.1	90.8	40	62.5	1	3	292	0.00	29.857 
19:40	90.1	90.1	90.5	39	61.8	1	3	292	0.00	29.857 
19:45	89.9	89.9	90.5	40	62.3	0	1	292	0.00	29.860 
19:50	89.9	89.9	90.9	41	63.0	0	1	292	0.00	29.860 
19:55	89.7	89.7	90.2	40	62.1	0	1	292	0.00	29.860 
20:00	89.5	89.5	90.0	40	61.9	0	2	292	0.00	29.858 
20:05	89.3	89.3	89.7	40	61.8	0	1	292	0.00	29.858 
20:10	88.8	88.8	89.3	41	62.0	0	1	292	0.00	29.858 
20:15	88.6	88.6	89.0	41	61.8	0	1	292	0.00	29.859 
20:20	88.2	88.2	88.4	41	61.5	0	0	---	0.00	29.859 
20:25	88.0	88.0	88.2	41	61.3	0	0	---	0.00	29.859 
20:30	87.6	87.6	87.9	42	61.6	0	0	---	0.00	29.860 
20:35	87.2	87.2	87.6	43	61.9	0	0	---	0.00	29.860 
20:40	87.0	87.0	87.4	43	61.8	0	0	---	0.00	29.860 
20:45	86.5	86.5	87.0	44	62.0	0	0	---	0.00	29.859 
20:50	86.3	86.3	87.2	46	63.0	0	0	---	0.00	29.859 
20:55	85.9	85.9	86.7	46	62.7	0	0	---	0.00	29.859 
21:00	85.5	85.5	86.4	47	62.9	0	0	---	0.00	29.859 
21:05	84.9	84.9	85.8	48	63.0	0	0	---	0.00	29.859 
21:10	84.5	84.5	85.6	49	63.2	0	0	---	0.00	29.859 
21:15	84.1	84.1	85.3	50	63.4	0	0	---	0.00	29.859 
21:20	83.6	83.6	84.6	50	63.0	0	0	---	0.00	29.859 
21:25	83.0	83.0	83.9	50	62.4	0	0	---	0.00	29.859 
21:30	82.6	82.6	83.6	51	62.6	0	0	---	0.00	29.863 
21:35	82.2	82.2	83.3	52	62.8	0	0	---	0.00	29.863 
21:40	81.8	81.8	83.2	54	63.5	0	1	292	0.00	29.863 
21:45	81.4	81.4	82.8	55	63.7	0	0	---	0.00	29.864 
21:50	81.2	81.2	82.6	55	63.5	0	0	---	0.00	29.864 
21:55	80.9	80.9	82.5	57	64.2	0	0	---	0.00	29.864 
22:00	80.7	80.7	82.4	58	64.5	0	0	---	0.00	29.874 
22:05	80.7	80.7	82.4	58	64.5	0	0	---	0.00	29.874 
22:10	80.5	80.5	82.3	59	64.8	0	0	---	0.00	29.874 
22:15	80.3	80.3	82.2	60	65.1	0	0	---	0.00	29.878 
22:20	80.1	80.1	82.0	61	65.4	0	0	---	0.00	29.878 
22:25	80.1	80.1	82.2	62	65.9	0	0	---	0.00	29.878 
22:30	80.1	80.1	82.2	62	65.9	0	0	---	0.00	29.885 
22:35	80.1	80.1	82.2	62	65.9	0	0	---	0.00	29.885 
22:40	79.9	79.9	82.0	63	66.2	0	0	---	0.00	29.885 
22:45	79.8	79.8	81.9	63	66.1	0	0	---	0.00	29.889 
22:50	79.6	79.6	81.7	64	66.3	0	0	---	0.00	29.889 
22:55	79.6	79.6	81.8	65	66.8	0	0	---	0.00	29.889 
23:00	79.6	79.6	81.8	65	66.8	0	0	---	0.00	29.888 
23:05	79.6	79.6	81.8	65	66.8	0	1	292	0.00	29.888 
23:10	79.8	79.8	82.0	64	66.5	0	0	---	0.00	29.888 
23:15	79.9	79.9	82.1	64	66.6	0	0	---	0.00	29.886 
23:20	79.8	79.8	82.0	64	66.5	0	0	---	0.00	29.886 
23:25	79.8	79.8	82.0	64	66.5	0	0	---	0.00	29.886 
23:30	79.8	79.8	82.0	64	66.5	0	0	---	0.00	29.886 
23:35	79.8	79.8	82.1	65	67.0	0	0	---	0.00	29.886 
23:40	79.6	79.6	81.8	65	66.8	0	1	292	0.00	29.886 
23:45	79.6	79.6	81.8	65	66.8	0	0	---	0.00	29.887 
23:50	79.6	79.6	81.8	65	66.8	0	0	---	0.00	29.887 
23:55	79.6	79.6	81.8	65	66.8	0	1	292	0.00	29.887 

CoCoRaHS
IN-AL-39
A2 Web Hosting
Creative Commons License
GoDaddy
search engine by freefind advanced

loaded 2018-11-13 23:57:57 • last modified 2010-11-18 10:43:29
Privacy PolicyDisclaimer
• wx.awcolley.com is powered by PmWiki v.2002016 •
• all content (unless otherwise noted) © 2018 A W Colley